sensor_id;sensor_type;location;lat;lon;timestamp;P1;durP1;ratioP1;P2;durP2;ratioP2
76123;SDS011;65173;48.066;20.976;2023-07-16T00:00:03;11.60;;;5.00;;
76123;SDS011;65173;48.066;20.976;2023-07-16T00:03:08;8.95;;;4.50;;
76123;SDS011;65173;48.066;20.976;2023-07-16T00:06:12;12.05;;;4.75;;
76123;SDS011;65173;48.066;20.976;2023-07-16T00:09:16;57.28;;;21.48;;
76123;SDS011;65173;48.066;20.976;2023-07-16T00:12:20;60.30;;;22.63;;
76123;SDS011;65173;48.066;20.976;2023-07-16T00:15:23;85.78;;;39.30;;
76123;SDS011;65173;48.066;20.976;2023-07-16T00:18:26;16.02;;;7.57;;
76123;SDS011;65173;48.066;20.976;2023-07-16T00:21:31;4.60;;;3.03;;
76123;SDS011;65173;48.066;20.976;2023-07-16T00:24:34;19.65;;;8.07;;
76123;SDS011;65173;48.066;20.976;2023-07-16T00:27:37;32.97;;;14.52;;
76123;SDS011;65173;48.066;20.976;2023-07-16T00:30:40;3.90;;;3.25;;
76123;SDS011;65173;48.066;20.976;2023-07-16T00:33:43;3.08;;;2.35;;
76123;SDS011;65173;48.066;20.976;2023-07-16T00:36:50;3.03;;;1.90;;
76123;SDS011;65173;48.066;20.976;2023-07-16T00:39:54;2.20;;;1.92;;
76123;SDS011;65173;48.066;20.976;2023-07-16T00:42:58;3.17;;;1.77;;
76123;SDS011;65173;48.066;20.976;2023-07-16T00:46:00;28.77;;;12.55;;
76123;SDS011;65173;48.066;20.976;2023-07-16T00:49:04;38.65;;;17.48;;
76123;SDS011;65173;48.066;20.976;2023-07-16T00:52:09;27.30;;;12.83;;
76123;SDS011;65173;48.066;20.976;2023-07-16T00:55:17;20.27;;;9.82;;
76123;SDS011;65173;48.066;20.976;2023-07-16T00:58:20;11.52;;;5.88;;
76123;SDS011;65173;48.066;20.976;2023-07-16T01:01:23;8.73;;;3.55;;
76123;SDS011;65173;48.066;20.976;2023-07-16T01:04:26;4.22;;;1.83;;
76123;SDS011;65173;48.066;20.976;2023-07-16T01:07:32;3.08;;;1.70;;
76123;SDS011;65173;48.066;20.976;2023-07-16T01:10:37;6.40;;;2.60;;
76123;SDS011;65173;48.066;20.976;2023-07-16T01:13:48;5.07;;;4.00;;
76123;SDS011;65173;48.066;20.976;2023-07-16T01:16:51;4.03;;;2.25;;
76123;SDS011;65173;48.066;20.976;2023-07-16T01:20:01;2.47;;;1.77;;
76123;SDS011;65173;48.066;20.976;2023-07-16T01:26:32;3.42;;;2.22;;
76123;SDS011;65173;48.066;20.976;2023-07-16T01:30:03;2.22;;;1.60;;
76123;SDS011;65173;48.066;20.976;2023-07-16T01:33:07;2.58;;;2.00;;
76123;SDS011;65173;48.066;20.976;2023-07-16T01:36:13;4.72;;;2.47;;
76123;SDS011;65173;48.066;20.976;2023-07-16T01:39:18;7.82;;;3.92;;
76123;SDS011;65173;48.066;20.976;2023-07-16T01:42:22;2.55;;;2.28;;
76123;SDS011;65173;48.066;20.976;2023-07-16T01:45:29;2.53;;;1.80;;
76123;SDS011;65173;48.066;20.976;2023-07-16T01:48:35;1.75;;;1.40;;
76123;SDS011;65173;48.066;20.976;2023-07-16T01:51:39;3.25;;;1.88;;
76123;SDS011;65173;48.066;20.976;2023-07-16T01:54:42;2.50;;;2.03;;
76123;SDS011;65173;48.066;20.976;2023-07-16T01:57:46;2.70;;;1.63;;
76123;SDS011;65173;48.066;20.976;2023-07-16T02:00:51;1.88;;;1.75;;
76123;SDS011;65173;48.066;20.976;2023-07-16T02:03:54;2.65;;;1.60;;
76123;SDS011;65173;48.066;20.976;2023-07-16T02:06:57;2.97;;;1.52;;
76123;SDS011;65173;48.066;20.976;2023-07-16T02:10:01;3.53;;;2.60;;
76123;SDS011;65173;48.066;20.976;2023-07-16T02:13:07;6.35;;;2.63;;
76123;SDS011;65173;48.066;20.976;2023-07-16T02:16:10;3.60;;;2.33;;
76123;SDS011;65173;48.066;20.976;2023-07-16T02:19:15;13.35;;;6.63;;
76123;SDS011;65173;48.066;20.976;2023-07-16T02:22:18;15.60;;;7.57;;
76123;SDS011;65173;48.066;20.976;2023-07-16T02:25:22;41.40;;;18.90;;
76123;SDS011;65173;48.066;20.976;2023-07-16T02:28:25;14.57;;;7.05;;
76123;SDS011;65173;48.066;20.976;2023-07-16T02:31:28;7.43;;;3.92;;
76123;SDS011;65173;48.066;20.976;2023-07-16T02:34:31;41.20;;;20.55;;
76123;SDS011;65173;48.066;20.976;2023-07-16T02:37:36;9.65;;;5.28;;
76123;SDS011;65173;48.066;20.976;2023-07-16T02:40:47;11.30;;;4.72;;
76123;SDS011;65173;48.066;20.976;2023-07-16T02:43:58;21.60;;;9.70;;
76123;SDS011;65173;48.066;20.976;2023-07-16T02:47:03;16.80;;;6.53;;
76123;SDS011;65173;48.066;20.976;2023-07-16T02:50:06;10.10;;;5.15;;
76123;SDS011;65173;48.066;20.976;2023-07-16T02:53:09;8.82;;;4.78;;
76123;SDS011;65173;48.066;20.976;2023-07-16T02:56:12;7.67;;;2.83;;
76123;SDS011;65173;48.066;20.976;2023-07-16T02:59:16;7.63;;;4.03;;
76123;SDS011;65173;48.066;20.976;2023-07-16T03:02:19;4.18;;;2.58;;
76123;SDS011;65173;48.066;20.976;2023-07-16T03:05:22;3.35;;;2.53;;
76123;SDS011;65173;48.066;20.976;2023-07-16T03:08:25;4.50;;;2.20;;
76123;SDS011;65173;48.066;20.976;2023-07-16T03:11:32;7.55;;;2.30;;
76123;SDS011;65173;48.066;20.976;2023-07-16T03:14:35;3.40;;;2.05;;
76123;SDS011;65173;48.066;20.976;2023-07-16T03:17:38;4.53;;;2.20;;
76123;SDS011;65173;48.066;20.976;2023-07-16T03:20:41;4.10;;;2.80;;
76123;SDS011;65173;48.066;20.976;2023-07-16T03:23:45;22.48;;;11.45;;
76123;SDS011;65173;48.066;20.976;2023-07-16T03:26:48;5.07;;;3.43;;
76123;SDS011;65173;48.066;20.976;2023-07-16T03:29:53;8.23;;;4.30;;
76123;SDS011;65173;48.066;20.976;2023-07-16T03:32:58;16.30;;;7.35;;
76123;SDS011;65173;48.066;20.976;2023-07-16T03:36:01;8.38;;;5.07;;
76123;SDS011;65173;48.066;20.976;2023-07-16T03:39:04;6.20;;;3.55;;
76123;SDS011;65173;48.066;20.976;2023-07-16T03:42:09;2.95;;;2.65;;
76123;SDS011;65173;48.066;20.976;2023-07-16T03:45:12;4.95;;;2.88;;
76123;SDS011;65173;48.066;20.976;2023-07-16T03:48:15;26.43;;;11.67;;
76123;SDS011;65173;48.066;20.976;2023-07-16T03:51:18;5.80;;;4.15;;
76123;SDS011;65173;48.066;20.976;2023-07-16T03:54:24;3.35;;;2.42;;
76123;SDS011;65173;48.066;20.976;2023-07-16T03:57:28;2.43;;;2.23;;
76123;SDS011;65173;48.066;20.976;2023-07-16T04:00:31;2.70;;;2.40;;
76123;SDS011;65173;48.066;20.976;2023-07-16T04:03:35;3.47;;;2.35;;
76123;SDS011;65173;48.066;20.976;2023-07-16T04:06:41;3.50;;;2.47;;
76123;SDS011;65173;48.066;20.976;2023-07-16T04:09:45;3.40;;;2.10;;
76123;SDS011;65173;48.066;20.976;2023-07-16T04:12:49;11.38;;;5.78;;
76123;SDS011;65173;48.066;20.976;2023-07-16T04:15:51;21.63;;;7.18;;
76123;SDS011;65173;48.066;20.976;2023-07-16T04:18:56;3.17;;;2.57;;
76123;SDS011;65173;48.066;20.976;2023-07-16T04:21:59;7.55;;;4.75;;
76123;SDS011;65173;48.066;20.976;2023-07-16T04:25:02;4.30;;;2.67;;
76123;SDS011;65173;48.066;20.976;2023-07-16T04:28:06;3.27;;;2.30;;
76123;SDS011;65173;48.066;20.976;2023-07-16T04:31:15;5.10;;;3.00;;
76123;SDS011;65173;48.066;20.976;2023-07-16T04:34:21;2.58;;;2.38;;
76123;SDS011;65173;48.066;20.976;2023-07-16T04:37:24;4.93;;;3.15;;
76123;SDS011;65173;48.066;20.976;2023-07-16T04:40:30;6.13;;;2.38;;
76123;SDS011;65173;48.066;20.976;2023-07-16T04:43:33;4.43;;;3.17;;
76123;SDS011;65173;48.066;20.976;2023-07-16T04:46:36;3.53;;;2.50;;
76123;SDS011;65173;48.066;20.976;2023-07-16T04:49:47;6.33;;;4.17;;
76123;SDS011;65173;48.066;20.976;2023-07-16T04:52:50;4.88;;;3.13;;
76123;SDS011;65173;48.066;20.976;2023-07-16T04:55:54;4.93;;;3.20;;
76123;SDS011;65173;48.066;20.976;2023-07-16T04:58:59;4.43;;;3.13;;
76123;SDS011;65173;48.066;20.976;2023-07-16T05:02:02;3.28;;;2.85;;
76123;SDS011;65173;48.066;20.976;2023-07-16T05:05:09;5.18;;;3.38;;
76123;SDS011;65173;48.066;20.976;2023-07-16T05:08:12;4.32;;;3.08;;
76123;SDS011;65173;48.066;20.976;2023-07-16T05:11:15;4.03;;;3.20;;
76123;SDS011;65173;48.066;20.976;2023-07-16T05:14:18;3.40;;;2.53;;
76123;SDS011;65173;48.066;20.976;2023-07-16T05:17:20;6.63;;;2.88;;
76123;SDS011;65173;48.066;20.976;2023-07-16T05:20:24;2.53;;;2.30;;
76123;SDS011;65173;48.066;20.976;2023-07-16T05:23:30;3.55;;;3.00;;
76123;SDS011;65173;48.066;20.976;2023-07-16T05:26:32;4.15;;;3.20;;
76123;SDS011;65173;48.066;20.976;2023-07-16T05:29:37;3.03;;;2.73;;
76123;SDS011;65173;48.066;20.976;2023-07-16T05:32:40;3.83;;;2.88;;
76123;SDS011;65173;48.066;20.976;2023-07-16T05:35:43;4.07;;;3.53;;
76123;SDS011;65173;48.066;20.976;2023-07-16T05:38:54;3.20;;;2.90;;
76123;SDS011;65173;48.066;20.976;2023-07-16T05:41:57;4.57;;;2.47;;
76123;SDS011;65173;48.066;20.976;2023-07-16T05:45:01;3.10;;;2.42;;
76123;SDS011;65173;48.066;20.976;2023-07-16T05:48:03;4.13;;;2.15;;
76123;SDS011;65173;48.066;20.976;2023-07-16T05:51:10;2.47;;;2.00;;
76123;SDS011;65173;48.066;20.976;2023-07-16T05:54:13;3.90;;;2.53;;
76123;SDS011;65173;48.066;20.976;2023-07-16T05:57:18;2.60;;;2.03;;
76123;SDS011;65173;48.066;20.976;2023-07-16T06:00:21;2.40;;;2.20;;
76123;SDS011;65173;48.066;20.976;2023-07-16T06:03:24;2.95;;;2.58;;
76123;SDS011;65173;48.066;20.976;2023-07-16T06:06:31;2.83;;;2.30;;
76123;SDS011;65173;48.066;20.976;2023-07-16T06:09:34;3.22;;;2.30;;
76123;SDS011;65173;48.066;20.976;2023-07-16T06:12:38;2.28;;;2.03;;
76123;SDS011;65173;48.066;20.976;2023-07-16T06:15:40;3.55;;;2.97;;
76123;SDS011;65173;48.066;20.976;2023-07-16T06:18:43;2.70;;;2.50;;
76123;SDS011;65173;48.066;20.976;2023-07-16T06:21:47;2.87;;;2.20;;
76123;SDS011;65173;48.066;20.976;2023-07-16T06:24:49;2.85;;;2.65;;
76123;SDS011;65173;48.066;20.976;2023-07-16T06:27:53;3.75;;;2.30;;
76123;SDS011;65173;48.066;20.976;2023-07-16T06:30:55;2.87;;;2.57;;
76123;SDS011;65173;48.066;20.976;2023-07-16T06:33:58;2.63;;;2.42;;
76123;SDS011;65173;48.066;20.976;2023-07-16T06:37:04;3.63;;;2.13;;
76123;SDS011;65173;48.066;20.976;2023-07-16T06:40:08;2.60;;;2.38;;
76123;SDS011;65173;48.066;20.976;2023-07-16T06:43:15;3.90;;;2.85;;
76123;SDS011;65173;48.066;20.976;2023-07-16T06:46:18;3.17;;;2.65;;
76123;SDS011;65173;48.066;20.976;2023-07-16T06:49:22;3.75;;;2.60;;
76123;SDS011;65173;48.066;20.976;2023-07-16T06:52:25;5.63;;;2.73;;
76123;SDS011;65173;48.066;20.976;2023-07-16T06:55:32;3.47;;;3.17;;
76123;SDS011;65173;48.066;20.976;2023-07-16T06:58:39;2.42;;;2.22;;
76123;SDS011;65173;48.066;20.976;2023-07-16T07:01:41;3.00;;;2.73;;
76123;SDS011;65173;48.066;20.976;2023-07-16T07:04:44;3.08;;;2.78;;
76123;SDS011;65173;48.066;20.976;2023-07-16T07:07:47;3.15;;;2.95;;
76123;SDS011;65173;48.066;20.976;2023-07-16T07:10:50;2.78;;;2.58;;
76123;SDS011;65173;48.066;20.976;2023-07-16T07:13:52;2.08;;;1.98;;
76123;SDS011;65173;48.066;20.976;2023-07-16T07:16:56;2.83;;;2.00;;
76123;SDS011;65173;48.066;20.976;2023-07-16T07:19:58;2.95;;;2.65;;
76123;SDS011;65173;48.066;20.976;2023-07-16T07:23:05;2.20;;;2.00;;
76123;SDS011;65173;48.066;20.976;2023-07-16T07:26:08;4.68;;;2.30;;
76123;SDS011;65173;48.066;20.976;2023-07-16T07:29:11;2.17;;;2.08;;
76123;SDS011;65173;48.066;20.976;2023-07-16T07:32:19;2.80;;;2.50;;
76123;SDS011;65173;48.066;20.976;2023-07-16T07:35:23;2.95;;;2.67;;
76123;SDS011;65173;48.066;20.976;2023-07-16T07:38:26;2.72;;;2.53;;
76123;SDS011;65173;48.066;20.976;2023-07-16T07:41:32;2.65;;;2.45;;
76123;SDS011;65173;48.066;20.976;2023-07-16T07:44:35;2.97;;;2.78;;
76123;SDS011;65173;48.066;20.976;2023-07-16T07:47:38;4.13;;;2.47;;
76123;SDS011;65173;48.066;20.976;2023-07-16T07:50:40;3.15;;;2.78;;
76123;SDS011;65173;48.066;20.976;2023-07-16T07:53:55;4.10;;;2.07;;
76123;SDS011;65173;48.066;20.976;2023-07-16T07:57:00;4.95;;;2.78;;
76123;SDS011;65173;48.066;20.976;2023-07-16T08:00:08;6.13;;;2.50;;
76123;SDS011;65173;48.066;20.976;2023-07-16T08:03:15;3.07;;;2.83;;
76123;SDS011;65173;48.066;20.976;2023-07-16T08:06:26;2.97;;;2.38;;
76123;SDS011;65173;48.066;20.976;2023-07-16T08:09:29;3.10;;;2.90;;
76123;SDS011;65173;48.066;20.976;2023-07-16T08:12:32;2.70;;;2.50;;
76123;SDS011;65173;48.066;20.976;2023-07-16T08:15:34;3.30;;;3.10;;
76123;SDS011;65173;48.066;20.976;2023-07-16T08:18:38;3.78;;;3.47;;
76123;SDS011;65173;48.066;20.976;2023-07-16T08:21:41;3.28;;;3.08;;
76123;SDS011;65173;48.066;20.976;2023-07-16T08:24:44;3.13;;;2.93;;
76123;SDS011;65173;48.066;20.976;2023-07-16T08:27:47;2.80;;;2.60;;
76123;SDS011;65173;48.066;20.976;2023-07-16T08:30:52;3.42;;;3.13;;
76123;SDS011;65173;48.066;20.976;2023-07-16T08:33:57;3.20;;;2.90;;
76123;SDS011;65173;48.066;20.976;2023-07-16T08:37:02;3.55;;;3.25;;
76123;SDS011;65173;48.066;20.976;2023-07-16T08:40:05;2.95;;;2.70;;
76123;SDS011;65173;48.066;20.976;2023-07-16T08:43:08;3.78;;;3.38;;
76123;SDS011;65173;48.066;20.976;2023-07-16T08:46:14;3.50;;;3.20;;
76123;SDS011;65173;48.066;20.976;2023-07-16T08:49:19;4.90;;;2.50;;
76123;SDS011;65173;48.066;20.976;2023-07-16T08:52:24;2.83;;;2.53;;
76123;SDS011;65173;48.066;20.976;2023-07-16T08:55:30;3.05;;;2.75;;
76123;SDS011;65173;48.066;20.976;2023-07-16T08:58:33;2.80;;;2.60;;
76123;SDS011;65173;48.066;20.976;2023-07-16T09:01:36;2.65;;;2.50;;
76123;SDS011;65173;48.066;20.976;2023-07-16T09:04:41;2.63;;;2.42;;
76123;SDS011;65173;48.066;20.976;2023-07-16T09:07:44;2.90;;;2.70;;
76123;SDS011;65173;48.066;20.976;2023-07-16T09:10:53;3.37;;;2.80;;
76123;SDS011;65173;48.066;20.976;2023-07-16T09:13:57;3.05;;;1.95;;
76123;SDS011;65173;48.066;20.976;2023-07-16T09:17:05;3.22;;;2.90;;
76123;SDS011;65173;48.066;20.976;2023-07-16T09:20:08;3.20;;;3.00;;
76123;SDS011;65173;48.066;20.976;2023-07-16T09:23:11;2.60;;;2.47;;
76123;SDS011;65173;48.066;20.976;2023-07-16T09:26:14;2.67;;;2.50;;
76123;SDS011;65173;48.066;20.976;2023-07-16T09:29:17;2.47;;;2.33;;
76123;SDS011;65173;48.066;20.976;2023-07-16T09:32:22;2.30;;;2.17;;
76123;SDS011;65173;48.066;20.976;2023-07-16T09:35:24;2.83;;;2.40;;
76123;SDS011;65173;48.066;20.976;2023-07-16T09:38:29;3.13;;;2.67;;
76123;SDS011;65173;48.066;20.976;2023-07-16T09:41:32;3.42;;;2.80;;
76123;SDS011;65173;48.066;20.976;2023-07-16T09:44:35;2.33;;;2.22;;
76123;SDS011;65173;48.066;20.976;2023-07-16T09:47:39;3.28;;;3.08;;
76123;SDS011;65173;48.066;20.976;2023-07-16T09:50:44;2.50;;;2.40;;
76123;SDS011;65173;48.066;20.976;2023-07-16T09:53:54;2.87;;;2.60;;
76123;SDS011;65173;48.066;20.976;2023-07-16T09:56:58;3.13;;;2.88;;
76123;SDS011;65173;48.066;20.976;2023-07-16T10:00:06;3.20;;;2.90;;
76123;SDS011;65173;48.066;20.976;2023-07-16T10:03:20;3.35;;;3.05;;
76123;SDS011;65173;48.066;20.976;2023-07-16T10:06:23;2.90;;;2.70;;
76123;SDS011;65173;48.066;20.976;2023-07-16T10:09:36;2.58;;;2.38;;
76123;SDS011;65173;48.066;20.976;2023-07-16T10:13:03;2.45;;;2.30;;
76123;SDS011;65173;48.066;20.976;2023-07-16T10:16:06;2.90;;;2.70;;
76123;SDS011;65173;48.066;20.976;2023-07-16T10:19:10;2.47;;;2.30;;
76123;SDS011;65173;48.066;20.976;2023-07-16T10:22:14;4.65;;;2.78;;
76123;SDS011;65173;48.066;20.976;2023-07-16T10:28:42;3.00;;;2.80;;
76123;SDS011;65173;48.066;20.976;2023-07-16T10:31:44;2.80;;;2.60;;
76123;SDS011;65173;48.066;20.976;2023-07-16T10:34:49;3.25;;;2.95;;
76123;SDS011;65173;48.066;20.976;2023-07-16T10:37:52;3.63;;;2.75;;
76123;SDS011;65173;48.066;20.976;2023-07-16T10:40:56;2.70;;;2.50;;
76123;SDS011;65173;48.066;20.976;2023-07-16T10:44:00;2.60;;;2.40;;
76123;SDS011;65173;48.066;20.976;2023-07-16T10:47:03;2.85;;;2.65;;
76123;SDS011;65173;48.066;20.976;2023-07-16T10:50:07;2.85;;;2.65;;
76123;SDS011;65173;48.066;20.976;2023-07-16T10:53:11;3.33;;;3.10;;
76123;SDS011;65173;48.066;20.976;2023-07-16T10:56:15;2.92;;;2.72;;
76123;SDS011;65173;48.066;20.976;2023-07-16T10:59:18;3.20;;;3.00;;
76123;SDS011;65173;48.066;20.976;2023-07-16T11:02:21;3.17;;;2.97;;
76123;SDS011;65173;48.066;20.976;2023-07-16T11:05:26;2.80;;;2.60;;
76123;SDS011;65173;48.066;20.976;2023-07-16T11:08:33;3.33;;;3.13;;
76123;SDS011;65173;48.066;20.976;2023-07-16T11:11:36;3.10;;;2.90;;
76123;SDS011;65173;48.066;20.976;2023-07-16T11:14:42;2.83;;;2.63;;
76123;SDS011;65173;48.066;20.976;2023-07-16T11:17:48;3.27;;;2.77;;
76123;SDS011;65173;48.066;20.976;2023-07-16T11:20:52;2.78;;;2.58;;
76123;SDS011;65173;48.066;20.976;2023-07-16T11:24:12;4.30;;;3.60;;
76123;SDS011;65173;48.066;20.976;2023-07-16T11:27:17;2.78;;;2.45;;
76123;SDS011;65173;48.066;20.976;2023-07-16T11:30:23;3.37;;;3.10;;
76123;SDS011;65173;48.066;20.976;2023-07-16T11:33:34;3.10;;;2.90;;
76123;SDS011;65173;48.066;20.976;2023-07-16T11:36:38;4.38;;;3.58;;
76123;SDS011;65173;48.066;20.976;2023-07-16T11:39:40;3.15;;;2.95;;
76123;SDS011;65173;48.066;20.976;2023-07-16T11:42:43;3.63;;;3.33;;
76123;SDS011;65173;48.066;20.976;2023-07-16T11:45:49;3.42;;;3.13;;
76123;SDS011;65173;48.066;20.976;2023-07-16T11:48:52;2.88;;;2.67;;
76123;SDS011;65173;48.066;20.976;2023-07-16T11:51:55;3.10;;;2.90;;
76123;SDS011;65173;48.066;20.976;2023-07-16T11:55:01;2.63;;;2.42;;
76123;SDS011;65173;48.066;20.976;2023-07-16T11:58:07;3.15;;;2.95;;
76123;SDS011;65173;48.066;20.976;2023-07-16T12:01:11;3.00;;;2.80;;
76123;SDS011;65173;48.066;20.976;2023-07-16T12:04:15;3.60;;;3.40;;
76123;SDS011;65173;48.066;20.976;2023-07-16T12:07:30;2.45;;;2.25;;
76123;SDS011;65173;48.066;20.976;2023-07-16T12:10:36;4.10;;;3.80;;
76123;SDS011;65173;48.066;20.976;2023-07-16T12:13:39;3.13;;;2.97;;
76123;SDS011;65173;48.066;20.976;2023-07-16T12:16:42;3.47;;;3.25;;
76123;SDS011;65173;48.066;20.976;2023-07-16T12:19:45;3.08;;;2.88;;
76123;SDS011;65173;48.066;20.976;2023-07-16T12:22:48;3.17;;;2.97;;
76123;SDS011;65173;48.066;20.976;2023-07-16T12:25:51;3.70;;;3.40;;
76123;SDS011;65173;48.066;20.976;2023-07-16T12:28:54;3.38;;;3.17;;
76123;SDS011;65173;48.066;20.976;2023-07-16T12:31:57;3.33;;;3.13;;
76123;SDS011;65173;48.066;20.976;2023-07-16T12:35:01;3.40;;;3.20;;
76123;SDS011;65173;48.066;20.976;2023-07-16T12:38:05;2.53;;;2.42;;
76123;SDS011;65173;48.066;20.976;2023-07-16T12:41:08;3.28;;;3.03;;
76123;SDS011;65173;48.066;20.976;2023-07-16T12:44:12;3.47;;;3.22;;
76123;SDS011;65173;48.066;20.976;2023-07-16T12:47:14;3.08;;;2.88;;
76123;SDS011;65173;48.066;20.976;2023-07-16T12:50:17;3.40;;;3.20;;
76123;SDS011;65173;48.066;20.976;2023-07-16T12:53:21;3.22;;;3.03;;
76123;SDS011;65173;48.066;20.976;2023-07-16T12:56:25;3.80;;;3.33;;
76123;SDS011;65173;48.066;20.976;2023-07-16T12:59:38;2.95;;;2.65;;
76123;SDS011;65173;48.066;20.976;2023-07-16T13:02:41;3.53;;;3.22;;
76123;SDS011;65173;48.066;20.976;2023-07-16T13:05:43;2.67;;;2.47;;
76123;SDS011;65173;48.066;20.976;2023-07-16T13:08:51;2.90;;;2.70;;
76123;SDS011;65173;48.066;20.976;2023-07-16T13:11:54;3.15;;;2.95;;
76123;SDS011;65173;48.066;20.976;2023-07-16T13:14:57;3.65;;;3.45;;
76123;SDS011;65173;48.066;20.976;2023-07-16T13:18:00;6.93;;;3.60;;
76123;SDS011;65173;48.066;20.976;2023-07-16T13:21:03;4.80;;;3.20;;
76123;SDS011;65173;48.066;20.976;2023-07-16T13:24:05;3.40;;;3.10;;
76123;SDS011;65173;48.066;20.976;2023-07-16T13:27:22;3.42;;;3.15;;
76123;SDS011;65173;48.066;20.976;2023-07-16T13:30:28;3.40;;;2.53;;
76123;SDS011;65173;48.066;20.976;2023-07-16T13:33:32;2.78;;;2.58;;
76123;SDS011;65173;48.066;20.976;2023-07-16T13:36:35;3.05;;;2.30;;
76123;SDS011;65173;48.066;20.976;2023-07-16T13:39:38;3.05;;;2.85;;
76123;SDS011;65173;48.066;20.976;2023-07-16T13:42:42;3.00;;;2.80;;
76123;SDS011;65173;48.066;20.976;2023-07-16T13:45:48;2.65;;;2.45;;
76123;SDS011;65173;48.066;20.976;2023-07-16T13:48:51;3.10;;;2.90;;
76123;SDS011;65173;48.066;20.976;2023-07-16T13:52:00;3.30;;;2.50;;
76123;SDS011;65173;48.066;20.976;2023-07-16T13:55:04;3.03;;;2.83;;
76123;SDS011;65173;48.066;20.976;2023-07-16T13:58:08;3.05;;;2.72;;
76123;SDS011;65173;48.066;20.976;2023-07-16T14:01:11;3.70;;;3.10;;
76123;SDS011;65173;48.066;20.976;2023-07-16T14:04:16;3.13;;;2.85;;
76123;SDS011;65173;48.066;20.976;2023-07-16T14:07:19;3.20;;;2.73;;
76123;SDS011;65173;48.066;20.976;2023-07-16T14:10:23;3.60;;;3.40;;
76123;SDS011;65173;48.066;20.976;2023-07-16T14:13:26;3.65;;;2.90;;
76123;SDS011;65173;48.066;20.976;2023-07-16T14:16:29;3.08;;;2.80;;
76123;SDS011;65173;48.066;20.976;2023-07-16T14:19:32;3.13;;;2.93;;
76123;SDS011;65173;48.066;20.976;2023-07-16T14:22:35;3.00;;;2.80;;
76123;SDS011;65173;48.066;20.976;2023-07-16T14:25:38;2.72;;;2.33;;
76123;SDS011;65173;48.066;20.976;2023-07-16T14:28:41;3.17;;;2.97;;
76123;SDS011;65173;48.066;20.976;2023-07-16T14:31:44;2.43;;;2.23;;
76123;SDS011;65173;48.066;20.976;2023-07-16T14:34:48;3.15;;;2.88;;
76123;SDS011;65173;48.066;20.976;2023-07-16T14:37:50;3.10;;;2.70;;
76123;SDS011;65173;48.066;20.976;2023-07-16T14:40:53;3.10;;;2.88;;
76123;SDS011;65173;48.066;20.976;2023-07-16T14:43:56;2.75;;;2.10;;
76123;SDS011;65173;48.066;20.976;2023-07-16T14:46:59;2.92;;;2.63;;
76123;SDS011;65173;48.066;20.976;2023-07-16T14:50:02;2.95;;;2.25;;
76123;SDS011;65173;48.066;20.976;2023-07-16T14:53:08;2.80;;;2.50;;
76123;SDS011;65173;48.066;20.976;2023-07-16T14:56:13;2.33;;;2.22;;
76123;SDS011;65173;48.066;20.976;2023-07-16T14:59:17;3.20;;;2.80;;
76123;SDS011;65173;48.066;20.976;2023-07-16T15:02:20;3.47;;;3.20;;
76123;SDS011;65173;48.066;20.976;2023-07-16T15:05:23;2.72;;;2.53;;
76123;SDS011;65173;48.066;20.976;2023-07-16T15:08:27;3.33;;;3.03;;
76123;SDS011;65173;48.066;20.976;2023-07-16T15:11:30;2.97;;;2.75;;
76123;SDS011;65173;48.066;20.976;2023-07-16T15:14:35;3.13;;;2.87;;
76123;SDS011;65173;48.066;20.976;2023-07-16T15:17:38;3.15;;;2.95;;
76123;SDS011;65173;48.066;20.976;2023-07-16T15:20:41;5.82;;;2.85;;
76123;SDS011;65173;48.066;20.976;2023-07-16T15:23:52;4.32;;;2.40;;
76123;SDS011;65173;48.066;20.976;2023-07-16T15:26:54;2.40;;;2.20;;
76123;SDS011;65173;48.066;20.976;2023-07-16T15:29:57;2.85;;;2.65;;
76123;SDS011;65173;48.066;20.976;2023-07-16T15:33:00;3.15;;;2.85;;
76123;SDS011;65173;48.066;20.976;2023-07-16T15:36:04;2.95;;;2.75;;
76123;SDS011;65173;48.066;20.976;2023-07-16T15:39:09;3.15;;;2.95;;
76123;SDS011;65173;48.066;20.976;2023-07-16T15:42:14;2.65;;;2.13;;
76123;SDS011;65173;48.066;20.976;2023-07-16T15:45:17;4.00;;;2.25;;
76123;SDS011;65173;48.066;20.976;2023-07-16T15:48:20;3.20;;;2.80;;
76123;SDS011;65173;48.066;20.976;2023-07-16T15:51:24;2.50;;;2.30;;
76123;SDS011;65173;48.066;20.976;2023-07-16T15:54:27;3.85;;;3.10;;
76123;SDS011;65173;48.066;20.976;2023-07-16T15:57:30;3.55;;;3.25;;
76123;SDS011;65173;48.066;20.976;2023-07-16T16:00:34;2.47;;;2.30;;
76123;SDS011;65173;48.066;20.976;2023-07-16T16:03:37;3.97;;;2.28;;
76123;SDS011;65173;48.066;20.976;2023-07-16T16:06:40;2.47;;;2.28;;
76123;SDS011;65173;48.066;20.976;2023-07-16T16:09:43;5.05;;;2.75;;
76123;SDS011;65173;48.066;20.976;2023-07-16T16:12:45;3.33;;;2.20;;
76123;SDS011;65173;48.066;20.976;2023-07-16T16:15:48;2.78;;;2.08;;
76123;SDS011;65173;48.066;20.976;2023-07-16T16:18:51;4.22;;;2.90;;
76123;SDS011;65173;48.066;20.976;2023-07-16T16:21:55;2.60;;;2.40;;
76123;SDS011;65173;48.066;20.976;2023-07-16T16:24:59;3.07;;;2.37;;
76123;SDS011;65173;48.066;20.976;2023-07-16T16:28:05;2.50;;;2.30;;
76123;SDS011;65173;48.066;20.976;2023-07-16T16:31:09;3.05;;;2.75;;
76123;SDS011;65173;48.066;20.976;2023-07-16T16:34:11;3.92;;;2.30;;
76123;SDS011;65173;48.066;20.976;2023-07-16T16:37:15;3.23;;;3.03;;
76123;SDS011;65173;48.066;20.976;2023-07-16T16:40:18;4.00;;;3.00;;
76123;SDS011;65173;48.066;20.976;2023-07-16T16:43:22;3.40;;;2.55;;
76123;SDS011;65173;48.066;20.976;2023-07-16T16:46:33;3.80;;;2.33;;
76123;SDS011;65173;48.066;20.976;2023-07-16T16:49:36;3.10;;;2.90;;
76123;SDS011;65173;48.066;20.976;2023-07-16T16:52:38;3.35;;;2.95;;
76123;SDS011;65173;48.066;20.976;2023-07-16T16:55:41;2.78;;;2.58;;
76123;SDS011;65173;48.066;20.976;2023-07-16T16:58:47;5.50;;;2.65;;
76123;SDS011;65173;48.066;20.976;2023-07-16T17:01:50;2.43;;;2.23;;
76123;SDS011;65173;48.066;20.976;2023-07-16T17:04:54;5.70;;;2.85;;
76123;SDS011;65173;48.066;20.976;2023-07-16T17:07:58;4.13;;;2.65;;
76123;SDS011;65173;48.066;20.976;2023-07-16T17:11:02;7.13;;;2.97;;
76123;SDS011;65173;48.066;20.976;2023-07-16T17:14:05;2.85;;;2.38;;
76123;SDS011;65173;48.066;20.976;2023-07-16T17:17:08;3.67;;;2.80;;
76123;SDS011;65173;48.066;20.976;2023-07-16T17:20:12;3.35;;;2.60;;
76123;SDS011;65173;48.066;20.976;2023-07-16T17:23:16;4.77;;;2.43;;
76123;SDS011;65173;48.066;20.976;2023-07-16T17:26:20;3.10;;;2.53;;
76123;SDS011;65173;48.066;20.976;2023-07-16T17:29:22;4.07;;;2.55;;
76123;SDS011;65173;48.066;20.976;2023-07-16T17:32:26;2.88;;;2.33;;
76123;SDS011;65173;48.066;20.976;2023-07-16T17:35:31;4.73;;;1.90;;
76123;SDS011;65173;48.066;20.976;2023-07-16T17:38:35;4.43;;;2.20;;
76123;SDS011;65173;48.066;20.976;2023-07-16T17:41:38;2.67;;;2.20;;
76123;SDS011;65173;48.066;20.976;2023-07-16T17:44:41;2.20;;;2.00;;
76123;SDS011;65173;48.066;20.976;2023-07-16T17:47:47;3.35;;;2.55;;
76123;SDS011;65173;48.066;20.976;2023-07-16T17:50:50;2.92;;;2.38;;
76123;SDS011;65173;48.066;20.976;2023-07-16T17:54:00;6.95;;;2.47;;
76123;SDS011;65173;48.066;20.976;2023-07-16T17:57:03;3.00;;;1.98;;
76123;SDS011;65173;48.066;20.976;2023-07-16T18:00:07;2.58;;;2.38;;
76123;SDS011;65173;48.066;20.976;2023-07-16T18:03:27;2.35;;;1.80;;
76123;SDS011;65173;48.066;20.976;2023-07-16T18:06:30;2.67;;;2.20;;
76123;SDS011;65173;48.066;20.976;2023-07-16T18:09:35;5.07;;;1.92;;
76123;SDS011;65173;48.066;20.976;2023-07-16T18:12:37;2.97;;;1.98;;
76123;SDS011;65173;48.066;20.976;2023-07-16T18:15:40;3.57;;;1.77;;
76123;SDS011;65173;48.066;20.976;2023-07-16T18:18:43;5.28;;;1.90;;